Como, South Dakota
Current Conditions -  °F | °C
As of 2:55 PM on Saturday 20 Dec 2014 (Local Time) from KHON Reporting Station
Haze Haze  
Wind Chill: 20°   Ceiling: 300
Heat Index: 28°   Visibility: 3mi
Dew Point: 27°   Wind: 8mph
Humidity: 96%   Direction: 170°S
Pressure: 29.97"   Gusts: NA
Location:  44.4695°N, 98.9943°W
Report Text: KHON 202055Z AUTO 17007KT 3SM BR OVC003 M02/M03 A2997 RMK AO2 SLP165 T10221028 56012
Loading
Personal Weather Stations






























Interactive Weather Map New forecast layout! Learn more

10-Day Weather Forecast

Advertisements
Track Severe Weather on mobile